createdAt,value
2018-08-20T00:00:20.985Z,99.90
2018-08-20T00:02:49.206Z,99.90
2018-08-20T00:05:17.431Z,99.90
2018-08-20T00:07:45.875Z,99.90
2018-08-20T00:10:15.174Z,99.90
2018-08-20T00:12:44.138Z,99.90
2018-08-20T00:15:13.126Z,99.90
2018-08-20T00:17:42.531Z,99.90
2018-08-20T00:20:11.414Z,99.90
2018-08-20T00:22:41.939Z,99.90
2018-08-20T00:25:14.276Z,99.90
2018-08-20T00:27:43.075Z,99.90
2018-08-20T00:30:14.078Z,99.90
2018-08-20T00:32:45.063Z,99.90
2018-08-20T00:35:16.234Z,99.90
2018-08-20T00:37:46.493Z,99.90
2018-08-20T00:40:15.148Z,99.90
2018-08-20T00:42:43.835Z,99.90
2018-08-20T00:45:12.618Z,99.90
2018-08-20T00:47:41.749Z,99.90
2018-08-20T00:50:11.620Z,99.90
2018-08-20T00:52:40.965Z,99.90
2018-08-20T00:55:11.911Z,99.90
2018-08-20T00:57:41.412Z,99.90
2018-08-20T01:00:11.371Z,99.90
2018-08-20T01:02:40.626Z,99.90
2018-08-20T01:05:09.794Z,99.90
2018-08-20T01:07:38.686Z,99.90
2018-08-20T01:10:08.726Z,99.90
2018-08-20T01:12:37.548Z,99.90
2018-08-20T01:15:05.926Z,99.90
2018-08-20T01:17:34.163Z,99.90
2018-08-20T01:20:02.430Z,99.90
2018-08-20T01:22:30.763Z,99.90
2018-08-20T01:24:59.204Z,99.90
2018-08-20T01:27:29.114Z,99.90
2018-08-20T01:29:57.702Z,99.90
2018-08-20T01:32:26.026Z,99.90
2018-08-20T01:34:54.247Z,99.90
2018-08-20T01:37:22.647Z,99.90
2018-08-20T01:39:51.059Z,99.90
2018-08-20T01:42:19.559Z,99.90
2018-08-20T01:44:48.275Z,99.90
2018-08-20T01:47:16.480Z,99.90
2018-08-20T01:49:44.827Z,99.90
2018-08-20T01:52:13.355Z,99.90
2018-08-20T01:54:42.036Z,99.90
2018-08-20T01:57:10.895Z,99.90
2018-08-20T01:59:39.630Z,99.90
2018-08-20T02:02:08.672Z,99.90
2018-08-20T02:04:37.679Z,99.90
2018-08-20T02:07:06.235Z,99.90
2018-08-20T02:09:34.536Z,99.90
2018-08-20T02:12:02.754Z,99.90
2018-08-20T02:14:31.236Z,99.90
2018-08-20T02:16:59.683Z,99.90
2018-08-20T02:19:28.033Z,99.90
2018-08-20T02:21:56.316Z,99.90
2018-08-20T02:24:24.619Z,99.90
2018-08-20T02:26:52.823Z,99.90
2018-08-20T02:29:21.028Z,99.90
2018-08-20T02:31:49.222Z,99.90
2018-08-20T02:34:17.460Z,99.90
2018-08-20T02:36:45.890Z,99.90
2018-08-20T02:39:14.869Z,99.90
2018-08-20T02:41:43.850Z,99.90
2018-08-20T02:44:13.244Z,99.90
2018-08-20T02:46:53.093Z,99.90
2018-08-20T02:49:21.645Z,99.90
2018-08-20T02:51:50.759Z,99.90
2018-08-20T02:54:19.259Z,99.90
2018-08-20T02:56:47.724Z,99.90
2018-08-20T02:59:16.316Z,99.90
2018-08-20T03:01:45.031Z,99.90
2018-08-20T03:04:13.626Z,99.90
2018-08-20T03:06:42.318Z,99.90
2018-08-20T03:09:15.587Z,99.90
2018-08-20T03:11:44.308Z,99.90
2018-08-20T03:14:13.735Z,99.90
2018-08-20T03:16:42.468Z,99.90
2018-08-20T03:19:11.401Z,99.90
2018-08-20T03:21:40.547Z,99.90
2018-08-20T03:24:09.358Z,99.90
2018-08-20T03:26:38.872Z,99.90
2018-08-20T03:29:08.370Z,99.90
2018-08-20T03:31:36.816Z,99.90
2018-08-20T03:34:05.466Z,99.90
2018-08-20T03:36:33.940Z,99.90
2018-08-20T03:39:02.423Z,99.90
2018-08-20T03:41:31.142Z,99.90
2018-08-20T03:43:59.698Z,99.90
2018-08-20T03:46:28.624Z,99.90
2018-08-20T03:48:57.299Z,99.90
2018-08-20T03:51:25.935Z,99.90
2018-08-20T03:53:54.387Z,99.90
2018-08-20T03:56:22.736Z,99.90
2018-08-20T03:58:51.092Z,99.90
2018-08-20T04:01:19.556Z,99.90
2018-08-20T04:03:47.991Z,99.90
2018-08-20T04:06:16.466Z,99.90
2018-08-20T04:08:45.184Z,99.90
2018-08-20T04:11:13.916Z,99.90
2018-08-20T04:13:42.628Z,99.90
2018-08-20T04:16:11.467Z,99.90
2018-08-20T04:18:40.740Z,99.90
2018-08-20T04:21:09.632Z,99.90
2018-08-20T04:23:39.026Z,99.90
2018-08-20T04:26:07.983Z,99.90
2018-08-20T04:28:36.697Z,99.90
2018-08-20T04:31:05.181Z,99.90
2018-08-20T04:33:33.595Z,99.90
2018-08-20T04:36:02.062Z,99.90
2018-08-20T04:38:30.527Z,99.90
2018-08-20T04:40:59.124Z,99.90
2018-08-20T04:43:27.699Z,99.90
2018-08-20T04:45:56.238Z,99.90
2018-08-20T04:48:24.638Z,99.90
2018-08-20T04:50:53.218Z,99.90
2018-08-20T04:53:21.599Z,99.90
2018-08-20T04:55:50.012Z,99.90
2018-08-20T04:58:18.409Z,99.90
2018-08-20T05:00:46.828Z,99.90
2018-08-20T05:03:16.252Z,99.90
2018-08-20T05:05:45.277Z,99.90
2018-08-20T05:08:14.088Z,99.90
2018-08-20T05:10:42.749Z,99.90
2018-08-20T05:13:11.516Z,99.90
2018-08-20T05:15:40.299Z,99.90
2018-08-20T05:18:09.373Z,99.90
2018-08-20T05:20:38.469Z,99.90
2018-08-20T05:23:07.049Z,99.90
2018-08-20T05:25:35.443Z,99.90
2018-08-20T05:28:03.942Z,99.90
2018-08-20T05:30:32.411Z,99.90
2018-08-20T05:33:00.809Z,99.90
2018-08-20T05:35:29.479Z,99.90
2018-08-20T05:37:58.155Z,99.90
2018-08-20T05:40:26.588Z,99.90
2018-08-20T05:42:55.099Z,99.90
2018-08-20T05:45:23.530Z,99.90
2018-08-20T05:47:52.060Z,99.90
2018-08-20T05:50:20.545Z,99.90
2018-08-20T05:52:48.973Z,99.90
2018-08-20T05:55:17.459Z,99.90
2018-08-20T05:57:46.077Z,99.90
2018-08-20T06:00:16.651Z,99.90
2018-08-20T06:02:45.826Z,99.90
2018-08-20T06:05:14.472Z,99.90
2018-08-20T06:07:43.581Z,99.90
2018-08-20T06:10:12.174Z,99.90
2018-08-20T06:12:40.912Z,99.90
2018-08-20T06:15:12.485Z,99.90
2018-08-20T06:17:41.501Z,99.90
2018-08-20T06:20:16.491Z,99.90
2018-08-20T06:22:45.311Z,99.90
2018-08-20T06:25:14.522Z,99.90
2018-08-20T06:27:43.561Z,99.90
2018-08-20T06:30:15.454Z,99.90
2018-08-20T06:32:44.189Z,99.90
2018-08-20T06:35:13.129Z,99.90
2018-08-20T06:37:42.453Z,99.90
2018-08-20T06:40:12.977Z,99.90
2018-08-20T06:42:41.685Z,99.90
2018-08-20T06:45:15.005Z,99.90
2018-08-20T06:47:44.544Z,99.90
2018-08-20T06:50:13.583Z,99.90
2018-08-20T06:52:43.219Z,99.90
2018-08-20T06:55:12.900Z,99.90
2018-08-20T06:57:42.448Z,99.90
2018-08-20T07:00:12.718Z,99.90
2018-08-20T07:02:42.012Z,99.90
2018-08-20T07:05:10.924Z,99.90
2018-08-20T07:07:40.796Z,98.50
2018-08-20T07:10:12.383Z,98.00
2018-08-20T07:12:41.432Z,98.20
2018-08-20T07:15:12.350Z,97.50
2018-08-20T07:17:41.093Z,96.10
2018-08-20T07:20:12.211Z,98.60
2018-08-20T07:22:41.185Z,99.20
2018-08-20T07:25:10.312Z,99.30
2018-08-20T07:27:39.229Z,98.20
2018-08-20T07:30:10.142Z,98.70
2018-08-20T07:32:39.405Z,99.50
2018-08-20T07:35:10.036Z,99.90
2018-08-20T07:37:38.808Z,99.90
2018-08-20T07:40:08.554Z,99.90
2018-08-20T07:42:37.320Z,99.90
2018-08-20T07:45:06.677Z,99.90
2018-08-20T07:47:35.096Z,99.90
2018-08-20T07:50:03.785Z,99.90
2018-08-20T07:52:32.465Z,99.10
2018-08-20T07:55:01.109Z,98.90
2018-08-20T07:57:29.585Z,99.80
2018-08-20T07:59:58.201Z,96.00
2018-08-20T08:02:26.443Z,94.60
2018-08-20T08:04:54.646Z,94.00
2018-08-20T08:07:23.095Z,90.50
2018-08-20T08:09:51.327Z,91.50
2018-08-20T08:12:19.557Z,91.90
2018-08-20T08:14:47.776Z,90.50
2018-08-20T08:17:16.064Z,90.90
2018-08-20T08:19:44.546Z,90.50
2018-08-20T08:22:12.901Z,87.50
2018-08-20T08:24:41.523Z,83.60
2018-08-20T08:27:10.145Z,87.60
2018-08-20T08:29:38.719Z,87.70
2018-08-20T08:32:07.216Z,89.80
2018-08-20T08:34:35.949Z,83.20
2018-08-20T08:37:04.319Z,79.50
2018-08-20T08:39:32.632Z,77.10
2018-08-20T08:42:01.284Z,77.50
2018-08-20T08:44:29.717Z,83.80
2018-08-20T08:46:58.024Z,79.90
2018-08-20T08:49:26.250Z,78.00
2018-08-20T08:51:54.595Z,76.80
2018-08-20T08:54:22.820Z,77.60
2018-08-20T08:56:51.036Z,78.50
2018-08-20T08:59:19.296Z,73.80
2018-08-20T09:01:47.525Z,76.30
2018-08-20T09:04:15.951Z,72.00
2018-08-20T09:06:44.683Z,71.50
2018-08-20T09:09:13.813Z,66.50
2018-08-20T09:11:42.339Z,74.20
2018-08-20T09:14:11.015Z,73.80
2018-08-20T09:16:40.028Z,73.10
2018-08-20T09:19:09.691Z,60.90
2018-08-20T09:21:38.763Z,60.90
2018-08-20T09:24:07.704Z,57.10
2018-08-20T09:26:36.251Z,60.70
2018-08-20T09:29:04.583Z,60.30
2018-08-20T09:31:32.884Z,63.00
2018-08-20T09:34:01.255Z,62.80
2018-08-20T09:36:29.615Z,63.00
2018-08-20T09:38:58.204Z,63.80
2018-08-20T09:41:26.494Z,62.60
2018-08-20T09:43:54.801Z,61.70
2018-08-20T09:46:23.174Z,59.40
2018-08-20T09:48:54.977Z,61.00
2018-08-20T09:51:23.187Z,65.80
2018-08-20T09:53:51.527Z,59.90
2018-08-20T09:56:19.979Z,61.60
2018-08-20T09:58:48.196Z,57.80
2018-08-20T10:01:16.510Z,58.60
2018-08-20T10:03:45.467Z,62.50
2018-08-20T10:06:14.827Z,60.40
2018-08-20T10:08:43.263Z,56.70
2018-08-20T10:11:12.787Z,57.00
2018-08-20T10:13:41.608Z,57.50
2018-08-20T10:16:10.454Z,60.20
2018-08-20T10:18:39.919Z,56.10
2018-08-20T10:21:10.821Z,58.00
2018-08-20T10:23:39.932Z,57.90
2018-08-20T10:26:09.197Z,54.80
2018-08-20T10:28:38.027Z,50.90
2018-08-20T10:31:06.718Z,56.10
2018-08-20T10:33:35.056Z,53.50
2018-08-20T10:36:03.644Z,52.80
2018-08-20T10:38:31.960Z,54.50
2018-08-20T10:41:00.460Z,53.40
2018-08-20T10:43:29.119Z,53.50
2018-08-20T10:46:03.336Z,51.90
2018-08-20T10:48:31.837Z,51.00
2018-08-20T10:51:00.634Z,54.10
2018-08-20T10:53:29.182Z,52.10
2018-08-20T10:55:57.536Z,54.80
2018-08-20T10:58:25.803Z,56.00
2018-08-20T11:00:54.024Z,56.50
2018-08-20T11:03:22.236Z,51.50
2018-08-20T11:05:50.455Z,53.90
2018-08-20T11:08:18.859Z,55.30
2018-08-20T11:10:47.532Z,50.10
2018-08-20T11:13:16.375Z,50.90
2018-08-20T11:15:45.119Z,54.70
2018-08-20T11:18:13.724Z,54.60
2018-08-20T11:20:43.573Z,54.70
2018-08-20T11:23:12.557Z,49.80
2018-08-20T11:25:41.222Z,50.30
2018-08-20T11:28:10.095Z,48.40
2018-08-20T11:30:39.767Z,48.40
2018-08-20T11:33:09.271Z,52.30
2018-08-20T11:35:38.290Z,53.70
2018-08-20T11:38:07.147Z,55.80
2018-08-20T11:40:35.653Z,54.80
2018-08-20T11:43:03.999Z,51.30
2018-08-20T11:45:32.431Z,51.00
2018-08-20T11:48:01.440Z,49.10
2018-08-20T11:50:30.260Z,50.80
2018-08-20T11:52:58.594Z,54.10
2018-08-20T11:55:27.102Z,55.10
2018-08-20T11:57:58.514Z,52.10
2018-08-20T12:00:26.947Z,54.20
2018-08-20T12:02:55.164Z,51.60
2018-08-20T12:05:23.389Z,50.70
2018-08-20T12:07:51.676Z,52.10
2018-08-20T12:10:19.900Z,50.20
2018-08-20T12:12:48.363Z,50.10
2018-08-20T12:15:16.907Z,50.00
2018-08-20T12:17:45.475Z,49.20
2018-08-20T12:20:13.915Z,49.80
2018-08-20T12:22:42.715Z,51.30
2018-08-20T12:25:13.792Z,51.70
2018-08-20T12:27:43.415Z,51.40
2018-08-20T12:30:13.291Z,51.70
2018-08-20T12:32:42.584Z,52.40
2018-08-20T12:35:11.986Z,53.20
2018-08-20T12:37:42.196Z,52.80
2018-08-20T12:40:12.036Z,51.80
2018-08-20T12:42:49.051Z,48.30
2018-08-20T12:45:17.330Z,48.60
2018-08-20T12:47:45.827Z,49.60
2018-08-20T12:50:14.163Z,49.10
2018-08-20T12:52:42.935Z,50.00
2018-08-20T12:55:13.166Z,50.20
2018-08-20T12:57:43.454Z,49.50
2018-08-20T13:00:13.090Z,49.50
2018-08-20T13:02:42.310Z,49.30
2018-08-20T13:05:11.566Z,50.40
2018-08-20T13:07:41.496Z,50.20
2018-08-20T13:10:12.359Z,49.70
2018-08-20T13:12:42.114Z,46.20
2018-08-20T13:15:12.907Z,51.00
2018-08-20T13:17:42.120Z,49.60
2018-08-20T13:20:11.783Z,50.20
2018-08-20T13:22:42.053Z,48.70
2018-08-20T13:25:12.059Z,47.50
2018-08-20T13:27:43.753Z,49.00
2018-08-20T13:30:13.289Z,48.00
2018-08-20T13:32:42.929Z,46.70
2018-08-20T13:35:13.907Z,47.80
2018-08-20T13:37:43.843Z,50.10
2018-08-20T13:40:12.966Z,45.80
2018-08-20T13:42:43.072Z,47.30
2018-08-20T13:45:13.924Z,45.30
2018-08-20T13:47:43.423Z,47.40
2018-08-20T13:50:14.911Z,47.60
2018-08-20T13:52:46.750Z,46.80
2018-08-20T13:55:15.689Z,44.50
2018-08-20T13:57:47.564Z,49.50
2018-08-20T14:00:17.691Z,47.10
2018-08-20T14:02:46.155Z,50.10
2018-08-20T14:05:16.267Z,48.80
2018-08-20T14:07:45.765Z,48.20
2018-08-20T14:10:14.523Z,45.80
2018-08-20T14:12:43.916Z,45.50
2018-08-20T14:15:14.229Z,45.90
2018-08-20T14:17:44.093Z,44.20
2018-08-20T14:20:14.623Z,49.80
2018-08-20T14:22:44.887Z,45.80
2018-08-20T14:25:13.836Z,47.30
2018-08-20T14:27:43.147Z,49.00
2018-08-20T14:30:14.182Z,47.80
2018-08-20T14:32:43.692Z,47.30
2018-08-20T14:35:12.650Z,49.70
2018-08-20T14:37:42.608Z,47.00
2018-08-20T14:40:16.088Z,48.00
2018-08-20T14:42:45.123Z,51.90
2018-08-20T14:45:14.966Z,50.50
2018-08-20T14:47:44.402Z,50.80
2018-08-20T14:50:15.244Z,49.50
2018-08-20T14:52:45.244Z,51.70
2018-08-20T14:55:14.051Z,50.10
2018-08-20T14:57:44.079Z,52.90
2018-08-20T15:00:14.721Z,54.00
2018-08-20T15:02:44.302Z,55.70
2018-08-20T15:05:13.999Z,57.50
2018-08-20T15:07:43.168Z,58.70
2018-08-20T15:10:13.220Z,57.00
2018-08-20T15:12:43.773Z,57.90
2018-08-20T15:15:12.953Z,59.20
2018-08-20T15:17:43.285Z,55.70
2018-08-20T15:20:12.986Z,57.00
2018-08-20T15:22:43.681Z,59.30
2018-08-20T15:25:13.246Z,59.40
2018-08-20T15:27:43.472Z,59.50
2018-08-20T15:30:12.895Z,60.70
2018-08-20T15:32:43.379Z,58.70
2018-08-20T15:35:13.299Z,57.80
2018-08-20T15:37:43.442Z,57.20
2018-08-20T15:40:12.887Z,60.10
2018-08-20T15:42:42.381Z,60.80
2018-08-20T15:45:12.568Z,58.00
2018-08-20T15:47:42.831Z,60.10
2018-08-20T15:50:13.194Z,61.60
2018-08-20T15:52:42.710Z,60.90
2018-08-20T15:55:13.282Z,59.00
2018-08-20T15:57:43.372Z,60.00
2018-08-20T16:00:14.010Z,58.00
2018-08-20T16:02:43.195Z,59.70
2018-08-20T16:05:12.185Z,58.90
2018-08-20T16:07:41.327Z,59.50
2018-08-20T16:10:11.478Z,59.40
2018-08-20T16:12:40.958Z,61.90
2018-08-20T16:15:10.396Z,61.30
2018-08-20T16:17:39.332Z,61.70
2018-08-20T16:20:08.608Z,61.80
2018-08-20T16:22:37.856Z,61.20
2018-08-20T16:25:07.581Z,61.70
2018-08-20T16:27:36.532Z,62.90
2018-08-20T16:30:08.118Z,62.70
2018-08-20T16:32:37.579Z,63.10
2018-08-20T16:35:07.876Z,64.50
2018-08-20T16:37:36.251Z,64.10
2018-08-20T16:40:04.816Z,64.50
2018-08-20T16:42:33.010Z,65.50
2018-08-20T16:45:01.248Z,65.50
2018-08-20T16:47:29.462Z,66.80
2018-08-20T16:49:57.727Z,66.20
2018-08-20T16:52:25.998Z,68.10
2018-08-20T16:54:54.300Z,65.70
2018-08-20T16:57:26.308Z,67.50
2018-08-20T16:59:54.580Z,66.30
2018-08-20T17:02:28.082Z,66.90
2018-08-20T17:04:56.358Z,66.60
2018-08-20T17:07:24.592Z,67.10
2018-08-20T17:09:52.848Z,67.60
2018-08-20T17:12:21.071Z,68.30
2018-08-20T17:14:49.482Z,68.20
2018-08-20T17:17:17.746Z,69.10
2018-08-20T17:19:46.965Z,68.10
2018-08-20T17:22:15.806Z,68.60
2018-08-20T17:24:44.540Z,69.70
2018-08-20T17:27:13.128Z,69.50
2018-08-20T17:29:41.911Z,70.10
2018-08-20T17:32:10.817Z,70.50
2018-08-20T17:34:41.243Z,69.70
2018-08-20T17:37:10.852Z,71.60
2018-08-20T17:40:02.467Z,69.50
2018-08-20T17:42:32.013Z,71.40
2018-08-20T17:45:00.777Z,70.80
2018-08-20T17:47:29.678Z,70.90
2018-08-20T17:49:58.816Z,71.40
2018-08-20T17:52:30.798Z,70.80
2018-08-20T17:55:00.702Z,71.40
2018-08-20T17:57:28.866Z,74.00
2018-08-20T18:01:07.158Z,74.60
2018-08-20T18:03:37.064Z,74.90
2018-08-20T18:06:09.670Z,75.30
2018-08-20T18:08:38.955Z,74.90
2018-08-20T18:11:08.212Z,77.30
2018-08-20T18:13:46.148Z,77.80
2018-08-20T18:16:17.635Z,77.30
2018-08-20T18:18:47.468Z,80.30
2018-08-20T18:21:16.136Z,80.90
2018-08-20T18:23:45.211Z,81.90
2018-08-20T18:26:13.692Z,78.50
2018-08-20T18:28:48.023Z,78.00
2018-08-20T18:31:28.063Z,80.10
2018-08-20T18:33:56.321Z,81.90
2018-08-20T18:36:25.774Z,83.90
2018-08-20T18:38:56.531Z,85.50
2018-08-20T18:42:08.154Z,87.00
2018-08-20T18:44:37.267Z,86.20
2018-08-20T18:47:07.792Z,87.60
2018-08-20T18:49:48.518Z,88.70
2018-08-20T18:52:17.351Z,84.80
2018-08-20T18:54:46.919Z,87.70
2018-08-20T18:57:17.329Z,89.90
2018-08-20T18:59:45.854Z,90.20
2018-08-20T19:02:26.147Z,90.30
2018-08-20T19:04:54.400Z,90.90
2018-08-20T19:07:22.651Z,90.00
2018-08-20T19:09:50.867Z,91.10
2018-08-20T19:12:19.083Z,93.20
2018-08-20T19:14:47.305Z,93.30
2018-08-20T19:17:34.278Z,92.90
2018-08-20T19:20:02.575Z,93.60
2018-08-20T19:22:31.099Z,94.80
2018-08-20T19:24:59.343Z,94.50
2018-08-20T19:27:29.778Z,96.00
2018-08-20T19:30:00.708Z,96.20
2018-08-20T19:32:39.060Z,97.90
2018-08-20T19:35:08.209Z,99.50
2018-08-20T19:37:37.229Z,99.90
2018-08-20T19:40:10.556Z,99.90
2018-08-20T19:42:39.751Z,99.90
2018-08-20T19:45:11.325Z,99.90
2018-08-20T19:47:39.940Z,99.90
2018-08-20T19:50:10.121Z,99.90
2018-08-20T19:52:39.036Z,99.90
2018-08-20T19:55:10.785Z,99.90
2018-08-20T19:57:39.998Z,99.90
2018-08-20T20:00:13.500Z,99.90
2018-08-20T20:02:44.251Z,99.90
2018-08-20T20:05:14.136Z,99.90
2018-08-20T20:08:07.695Z,99.90
2018-08-20T20:10:40.609Z,99.90
2018-08-20T20:13:10.849Z,99.90
2018-08-20T20:15:43.862Z,99.90
2018-08-20T20:18:20.257Z,99.90
2018-08-20T20:20:48.479Z,99.90
2018-08-20T20:23:17.773Z,99.90
2018-08-20T20:25:47.288Z,99.90
2018-08-20T20:28:16.695Z,99.90
2018-08-20T20:30:45.953Z,99.90
2018-08-20T20:33:15.029Z,99.90
2018-08-20T20:35:44.992Z,99.90
2018-08-20T20:38:14.515Z,99.90
2018-08-20T20:40:43.604Z,99.90
2018-08-20T20:43:13.486Z,99.90
2018-08-20T20:45:43.949Z,99.90
2018-08-20T20:48:13.674Z,99.90
2018-08-20T20:50:43.345Z,99.90
2018-08-20T20:53:13.971Z,99.90
2018-08-20T20:55:43.181Z,99.90
2018-08-20T20:58:20.113Z,99.90
2018-08-20T21:00:49.036Z,99.90
2018-08-20T21:03:17.593Z,99.90
2018-08-20T21:05:46.394Z,99.90
2018-08-20T21:08:15.456Z,99.90
2018-08-20T21:10:50.616Z,99.90
2018-08-20T21:13:20.505Z,99.90
2018-08-20T21:15:55.544Z,99.90
2018-08-20T21:18:24.030Z,99.90
2018-08-20T21:20:53.469Z,99.90
2018-08-20T21:23:21.932Z,99.90
2018-08-20T21:25:50.457Z,99.90
2018-08-20T21:28:18.788Z,99.90
2018-08-20T21:30:47.599Z,99.90
2018-08-20T21:33:16.296Z,99.90
2018-08-20T21:35:47.977Z,99.90
2018-08-20T21:38:16.818Z,99.90
2018-08-20T21:40:46.060Z,99.90
2018-08-20T21:43:14.997Z,99.90
2018-08-20T21:45:44.254Z,99.90
2018-08-20T21:48:13.680Z,99.90
2018-08-20T21:50:43.384Z,99.90
2018-08-20T21:53:13.484Z,99.90
2018-08-20T21:55:42.835Z,99.90
2018-08-20T21:58:12.530Z,99.90
2018-08-20T22:00:42.549Z,99.90
2018-08-20T22:03:12.552Z,99.90
2018-08-20T22:05:42.490Z,99.90
2018-08-20T22:08:12.492Z,99.90
2018-08-20T22:10:42.580Z,99.90
2018-08-20T22:13:12.623Z,99.90
2018-08-20T22:15:42.700Z,99.90
2018-08-20T22:18:12.469Z,99.90
2018-08-20T22:20:42.021Z,99.90
2018-08-20T22:23:25.192Z,99.90
2018-08-20T22:25:42.327Z,99.90
2018-08-20T22:28:12.425Z,99.90
2018-08-20T22:30:45.975Z,99.90
2018-08-20T22:33:15.097Z,99.90
2018-08-20T22:35:44.383Z,99.90
2018-08-20T22:38:13.727Z,99.90
2018-08-20T22:40:43.507Z,99.90
2018-08-20T22:43:13.089Z,99.90
2018-08-20T22:45:42.593Z,99.90
2018-08-20T22:48:12.243Z,99.90
2018-08-20T22:50:41.728Z,99.90
2018-08-20T22:53:11.413Z,99.90
2018-08-20T22:55:50.175Z,99.90
2018-08-20T22:58:18.645Z,99.90
2018-08-20T23:00:47.200Z,99.90
2018-08-20T23:03:16.055Z,99.90
2018-08-20T23:05:44.984Z,99.90
2018-08-20T23:08:17.724Z,99.90
2018-08-20T23:10:46.440Z,99.90
2018-08-20T23:13:15.464Z,99.90
2018-08-20T23:15:44.336Z,99.90
2018-08-20T23:18:13.806Z,99.90
2018-08-20T23:20:43.119Z,99.90
2018-08-20T23:23:12.853Z,99.90
2018-08-20T23:25:42.496Z,99.90
2018-08-20T23:28:12.278Z,99.90
2018-08-20T23:30:42.906Z,99.90
2018-08-20T23:33:12.720Z,99.90
2018-08-20T23:35:42.496Z,99.90
2018-08-20T23:38:12.240Z,99.90
2018-08-20T23:40:42.076Z,99.90
2018-08-20T23:43:11.612Z,99.90
2018-08-20T23:45:41.323Z,99.90
2018-08-20T23:48:10.473Z,99.90
2018-08-20T23:50:40.191Z,99.90
2018-08-20T23:53:10.756Z,99.90
2018-08-20T23:55:40.534Z,99.90
2018-08-20T23:58:11.252Z,99.90
